sensor_id;sensor_type;location;lat;lon;timestamp;P1;durP1;ratioP1;P2;durP2;ratioP2
39740;SDS011;25426;53.478;10.190;2023-07-29T05:51:24;29.00;;;26.45;;
39740;SDS011;25426;53.478;10.190;2023-07-29T05:54:02;29.02;;;26.27;;
39740;SDS011;25426;53.478;10.190;2023-07-29T05:56:37;28.00;;;25.40;;
39740;SDS011;25426;53.478;10.190;2023-07-29T05:59:13;25.07;;;23.07;;
39740;SDS011;25426;53.478;10.190;2023-07-29T06:01:54;24.60;;;22.42;;
39740;SDS011;25426;53.478;10.190;2023-07-29T06:04:28;23.60;;;21.55;;
39740;SDS011;25426;53.478;10.190;2023-07-29T06:07:02;23.50;;;21.45;;
39740;SDS011;25426;53.478;10.190;2023-07-29T06:35:41;22.87;;;21.00;;
39740;SDS011;25426;53.478;10.190;2023-07-29T06:38:20;23.13;;;21.23;;
39740;SDS011;25426;53.478;10.190;2023-07-29T06:40:56;20.95;;;19.25;;
39740;SDS011;25426;53.478;10.190;2023-07-29T06:43:32;21.77;;;19.88;;
39740;SDS011;25426;53.478;10.190;2023-07-29T06:46:19;20.55;;;18.85;;
39740;SDS011;25426;53.478;10.190;2023-07-29T06:49:01;19.27;;;17.63;;
39740;SDS011;25426;53.478;10.190;2023-07-29T06:51:37;17.70;;;16.20;;
39740;SDS011;25426;53.478;10.190;2023-07-29T06:54:12;19.70;;;17.73;;
39740;SDS011;25426;53.478;10.190;2023-07-29T06:56:46;17.02;;;15.63;;
39740;SDS011;25426;53.478;10.190;2023-07-29T06:59:18;16.90;;;15.48;;
39740;SDS011;25426;53.478;10.190;2023-07-29T07:01:51;15.95;;;14.45;;
39740;SDS011;25426;53.478;10.190;2023-07-29T07:04:22;15.40;;;13.95;;
39740;SDS011;25426;53.478;10.190;2023-07-29T07:06:53;14.80;;;13.60;;
39740;SDS011;25426;53.478;10.190;2023-07-29T07:09:25;15.13;;;13.73;;
39740;SDS011;25426;53.478;10.190;2023-07-29T07:11:56;15.20;;;13.80;;
39740;SDS011;25426;53.478;10.190;2023-07-29T07:14:28;14.60;;;13.30;;
39740;SDS011;25426;53.478;10.190;2023-07-29T07:16:59;14.32;;;13.05;;
39740;SDS011;25426;53.478;10.190;2023-07-29T07:19:30;15.35;;;13.95;;
39740;SDS011;25426;53.478;10.190;2023-07-29T07:22:01;14.70;;;13.48;;
39740;SDS011;25426;53.478;10.190;2023-07-29T07:24:32;15.25;;;13.77;;
39740;SDS011;25426;53.478;10.190;2023-07-29T07:27:03;14.43;;;13.13;;
39740;SDS011;25426;53.478;10.190;2023-07-29T07:29:35;14.60;;;13.10;;
39740;SDS011;25426;53.478;10.190;2023-07-29T07:32:06;15.03;;;13.73;;
39740;SDS011;25426;53.478;10.190;2023-07-29T07:34:37;14.02;;;12.93;;
39740;SDS011;25426;53.478;10.190;2023-07-29T07:37:08;12.90;;;11.80;;
39740;SDS011;25426;53.478;10.190;2023-07-29T07:39:39;12.65;;;11.45;;
39740;SDS011;25426;53.478;10.190;2023-07-29T07:42:10;11.77;;;10.68;;
39740;SDS011;25426;53.478;10.190;2023-07-29T07:44:41;10.45;;;9.55;;
39740;SDS011;25426;53.478;10.190;2023-07-29T07:47:12;10.57;;;9.57;;
39740;SDS011;25426;53.478;10.190;2023-07-29T07:49:43;10.13;;;9.23;;
39740;SDS011;25426;53.478;10.190;2023-07-29T08:09:41;9.15;;;8.35;;
39740;SDS011;25426;53.478;10.190;2023-07-29T08:12:12;8.40;;;7.67;;
39740;SDS011;25426;53.478;10.190;2023-07-29T08:14:43;9.23;;;8.40;;
39740;SDS011;25426;53.478;10.190;2023-07-29T08:17:14;9.10;;;8.30;;
39740;SDS011;25426;53.478;10.190;2023-07-29T08:19:45;9.77;;;8.98;;
39740;SDS011;25426;53.478;10.190;2023-07-29T08:22:16;9.60;;;8.70;;
39740;SDS011;25426;53.478;10.190;2023-07-29T08:24:48;8.80;;;8.10;;
39740;SDS011;25426;53.478;10.190;2023-07-29T08:27:23;8.37;;;7.57;;
39740;SDS011;25426;53.478;10.190;2023-07-29T08:29:54;8.25;;;7.60;;
39740;SDS011;25426;53.478;10.190;2023-07-29T08:32:29;7.67;;;7.00;;
39740;SDS011;25426;53.478;10.190;2023-07-29T08:39:01;8.13;;;6.97;;
39740;SDS011;25426;53.478;10.190;2023-07-29T09:01:43;7.53;;;6.90;;
39740;SDS011;25426;53.478;10.190;2023-07-29T09:04:17;8.02;;;7.32;;
39740;SDS011;25426;53.478;10.190;2023-07-29T09:06:53;7.90;;;7.25;;
39740;SDS011;25426;53.478;10.190;2023-07-29T09:09:25;8.45;;;7.75;;
39740;SDS011;25426;53.478;10.190;2023-07-29T09:11:56;8.27;;;7.47;;
39740;SDS011;25426;53.478;10.190;2023-07-29T09:14:28;7.60;;;7.00;;
39740;SDS011;25426;53.478;10.190;2023-07-29T09:16:59;7.43;;;6.87;;
39740;SDS011;25426;53.478;10.190;2023-07-29T09:19:33;8.20;;;7.20;;
39740;SDS011;25426;53.478;10.190;2023-07-29T09:22:04;7.85;;;7.15;;
39740;SDS011;25426;53.478;10.190;2023-07-29T09:24:47;8.02;;;7.25;;
39740;SDS011;25426;53.478;10.190;2023-07-29T09:27:30;6.88;;;6.28;;
39740;SDS011;25426;53.478;10.190;2023-07-29T09:30:26;53.73;;;21.80;;
39740;SDS011;25426;53.478;10.190;2023-07-29T09:33:02;8.55;;;7.75;;
39740;SDS011;25426;53.478;10.190;2023-07-29T09:35:36;14.20;;;10.90;;
39740;SDS011;25426;53.478;10.190;2023-07-29T09:38:13;11.20;;;7.53;;
39740;SDS011;25426;53.478;10.190;2023-07-29T09:41:02;23.52;;;14.55;;
39740;SDS011;25426;53.478;10.190;2023-07-29T09:45:33;9.17;;;8.37;;
39740;SDS011;25426;53.478;10.190;2023-07-29T09:48:05;7.90;;;7.20;;
39740;SDS011;25426;53.478;10.190;2023-07-29T09:50:41;9.02;;;8.10;;
39740;SDS011;25426;53.478;10.190;2023-07-29T10:01:20;7.32;;;6.70;;
39740;SDS011;25426;53.478;10.190;2023-07-29T10:03:54;7.30;;;6.60;;
39740;SDS011;25426;53.478;10.190;2023-07-29T10:06:55;8.05;;;7.25;;
39740;SDS011;25426;53.478;10.190;2023-07-29T10:09:57;6.53;;;6.03;;
39740;SDS011;25426;53.478;10.190;2023-07-29T10:17:34;6.85;;;6.25;;
39740;SDS011;25426;53.478;10.190;2023-07-29T10:25:08;9.88;;;7.40;;
39740;SDS011;25426;53.478;10.190;2023-07-29T10:33:53;6.13;;;5.45;;
39740;SDS011;25426;53.478;10.190;2023-07-29T10:36:24;6.13;;;5.57;;
39740;SDS011;25426;53.478;10.190;2023-07-29T10:38:56;6.40;;;5.63;;
39740;SDS011;25426;53.478;10.190;2023-07-29T10:47:23;6.20;;;5.13;;
39740;SDS011;25426;53.478;10.190;2023-07-29T10:50:14;5.83;;;5.33;;
39740;SDS011;25426;53.478;10.190;2023-07-29T10:52:54;6.00;;;5.43;;
39740;SDS011;25426;53.478;10.190;2023-07-29T10:55:28;6.78;;;5.93;;
39740;SDS011;25426;53.478;10.190;2023-07-29T10:58:07;5.15;;;4.68;;
39740;SDS011;25426;53.478;10.190;2023-07-29T11:00:47;5.25;;;4.75;;
39740;SDS011;25426;53.478;10.190;2023-07-29T11:03:49;5.10;;;4.70;;
39740;SDS011;25426;53.478;10.190;2023-07-29T11:09:41;4.28;;;3.83;;
39740;SDS011;25426;53.478;10.190;2023-07-29T11:12:55;4.38;;;3.75;;
39740;SDS011;25426;53.478;10.190;2023-07-29T11:15:29;4.88;;;3.72;;
39740;SDS011;25426;53.478;10.190;2023-07-29T11:18:09;6.03;;;3.72;;
39740;SDS011;25426;53.478;10.190;2023-07-29T11:20:54;3.78;;;3.47;;
39740;SDS011;25426;53.478;10.190;2023-07-29T11:26:47;3.25;;;2.90;;
39740;SDS011;25426;53.478;10.190;2023-07-29T11:32:47;2.95;;;2.47;;
39740;SDS011;25426;53.478;10.190;2023-07-29T11:35:21;2.17;;;2.03;;
39740;SDS011;25426;53.478;10.190;2023-07-29T11:38:14;2.55;;;2.20;;
39740;SDS011;25426;53.478;10.190;2023-07-29T11:51:38;3.20;;;2.50;;
39740;SDS011;25426;53.478;10.190;2023-07-29T11:54:09;3.10;;;2.50;;
39740;SDS011;25426;53.478;10.190;2023-07-29T11:56:41;2.63;;;2.42;;
39740;SDS011;25426;53.478;10.190;2023-07-29T11:59:12;4.25;;;2.47;;
39740;SDS011;25426;53.478;10.190;2023-07-29T12:04:56;3.63;;;2.92;;
39740;SDS011;25426;53.478;10.190;2023-07-29T12:07:27;2.80;;;2.55;;
39740;SDS011;25426;53.478;10.190;2023-07-29T12:09:58;3.33;;;3.03;;
39740;SDS011;25426;53.478;10.190;2023-07-29T12:12:30;3.40;;;3.10;;
39740;SDS011;25426;53.478;10.190;2023-07-29T12:15:01;3.75;;;3.10;;
39740;SDS011;25426;53.478;10.190;2023-07-29T12:17:32;3.20;;;2.90;;
39740;SDS011;25426;53.478;10.190;2023-07-29T12:20:11;5.28;;;2.88;;
39740;SDS011;25426;53.478;10.190;2023-07-29T12:22:42;3.75;;;3.38;;
39740;SDS011;25426;53.478;10.190;2023-07-29T12:25:13;4.00;;;3.58;;
39740;SDS011;25426;53.478;10.190;2023-07-29T12:27:44;4.20;;;3.80;;
39740;SDS011;25426;53.478;10.190;2023-07-29T12:30:15;4.05;;;3.70;;
39740;SDS011;25426;53.478;10.190;2023-07-29T12:32:50;3.63;;;3.15;;
39740;SDS011;25426;53.478;10.190;2023-07-29T12:35:21;3.70;;;3.40;;
39740;SDS011;25426;53.478;10.190;2023-07-29T12:37:59;4.70;;;3.20;;
39740;SDS011;25426;53.478;10.190;2023-07-29T12:40:30;3.70;;;3.10;;
39740;SDS011;25426;53.478;10.190;2023-07-29T12:43:01;2.85;;;2.65;;
39740;SDS011;25426;53.478;10.190;2023-07-29T12:45:36;3.07;;;2.50;;
39740;SDS011;25426;53.478;10.190;2023-07-29T12:48:09;4.25;;;2.70;;
39740;SDS011;25426;53.478;10.190;2023-07-29T12:50:41;3.00;;;2.50;;
39740;SDS011;25426;53.478;10.190;2023-07-29T12:53:12;2.67;;;2.28;;
39740;SDS011;25426;53.478;10.190;2023-07-29T12:55:43;2.40;;;2.17;;
39740;SDS011;25426;53.478;10.190;2023-07-29T12:58:14;3.58;;;2.08;;
39740;SDS011;25426;53.478;10.190;2023-07-29T13:00:45;2.87;;;2.10;;
39740;SDS011;25426;53.478;10.190;2023-07-29T13:03:16;2.08;;;1.90;;
39740;SDS011;25426;53.478;10.190;2023-07-29T13:05:47;2.93;;;1.90;;
39740;SDS011;25426;53.478;10.190;2023-07-29T13:08:18;4.50;;;2.28;;
39740;SDS011;25426;53.478;10.190;2023-07-29T13:10:49;2.10;;;1.85;;
39740;SDS011;25426;53.478;10.190;2023-07-29T13:13:20;3.78;;;2.10;;
39740;SDS011;25426;53.478;10.190;2023-07-29T13:15:51;2.42;;;1.90;;
39740;SDS011;25426;53.478;10.190;2023-07-29T13:18:23;2.00;;;1.80;;
39740;SDS011;25426;53.478;10.190;2023-07-29T13:20:55;8.60;;;1.90;;
39740;SDS011;25426;53.478;10.190;2023-07-29T13:23:26;2.58;;;2.00;;
39740;SDS011;25426;53.478;10.190;2023-07-29T13:26:15;3.70;;;2.00;;
39740;SDS011;25426;53.478;10.190;2023-07-29T13:29:06;2.40;;;2.20;;
39740;SDS011;25426;53.478;10.190;2023-07-29T13:31:55;2.35;;;1.83;;
39740;SDS011;25426;53.478;10.190;2023-07-29T13:34:26;2.38;;;1.80;;
39740;SDS011;25426;53.478;10.190;2023-07-29T13:37:46;2.50;;;1.98;;
39740;SDS011;25426;53.478;10.190;2023-07-29T13:44:26;2.35;;;2.10;;
39740;SDS011;25426;53.478;10.190;2023-07-29T13:46:58;2.13;;;1.83;;
39740;SDS011;25426;53.478;10.190;2023-07-29T13:50:26;4.43;;;1.90;;
39740;SDS011;25426;53.478;10.190;2023-07-29T13:52:57;2.73;;;2.10;;
39740;SDS011;25426;53.478;10.190;2023-07-29T13:55:33;4.78;;;2.25;;
39740;SDS011;25426;53.478;10.190;2023-07-29T13:58:07;4.05;;;2.45;;
39740;SDS011;25426;53.478;10.190;2023-07-29T14:00:45;2.35;;;2.15;;
39740;SDS011;25426;53.478;10.190;2023-07-29T14:03:19;2.35;;;2.00;;
39740;SDS011;25426;53.478;10.190;2023-07-29T14:05:53;4.30;;;2.13;;
39740;SDS011;25426;53.478;10.190;2023-07-29T14:08:30;3.03;;;2.22;;
39740;SDS011;25426;53.478;10.190;2023-07-29T14:11:01;2.40;;;2.00;;
39740;SDS011;25426;53.478;10.190;2023-07-29T14:13:32;3.63;;;2.53;;
39740;SDS011;25426;53.478;10.190;2023-07-29T14:16:06;3.88;;;2.15;;
39740;SDS011;25426;53.478;10.190;2023-07-29T14:18:37;4.40;;;2.38;;
39740;SDS011;25426;53.478;10.190;2023-07-29T14:21:08;4.78;;;2.53;;
39740;SDS011;25426;53.478;10.190;2023-07-29T14:23:39;2.90;;;2.23;;
39740;SDS011;25426;53.478;10.190;2023-07-29T14:26:10;4.15;;;2.40;;
39740;SDS011;25426;53.478;10.190;2023-07-29T14:28:44;3.88;;;2.20;;
39740;SDS011;25426;53.478;10.190;2023-07-29T14:31:26;2.25;;;1.90;;
39740;SDS011;25426;53.478;10.190;2023-07-29T14:34:18;4.47;;;2.10;;
39740;SDS011;25426;53.478;10.190;2023-07-29T14:36:55;2.35;;;2.15;;
39740;SDS011;25426;53.478;10.190;2023-07-29T14:39:32;3.75;;;2.20;;
39740;SDS011;25426;53.478;10.190;2023-07-29T14:42:08;2.20;;;2.00;;
39740;SDS011;25426;53.478;10.190;2023-07-29T14:44:56;2.20;;;2.00;;
39740;SDS011;25426;53.478;10.190;2023-07-29T14:47:43;4.10;;;1.80;;
39740;SDS011;25426;53.478;10.190;2023-07-29T14:50:21;2.17;;;1.92;;
39740;SDS011;25426;53.478;10.190;2023-07-29T14:53:06;1.90;;;1.47;;
39740;SDS011;25426;53.478;10.190;2023-07-29T14:56:01;2.88;;;1.80;;
39740;SDS011;25426;53.478;10.190;2023-07-29T14:58:35;3.00;;;2.00;;
39740;SDS011;25426;53.478;10.190;2023-07-29T15:01:26;2.38;;;2.00;;
39740;SDS011;25426;53.478;10.190;2023-07-29T15:04:03;3.85;;;1.80;;
39740;SDS011;25426;53.478;10.190;2023-07-29T15:06:35;2.72;;;1.70;;
39740;SDS011;25426;53.478;10.190;2023-07-29T15:09:18;2.15;;;1.52;;
39740;SDS011;25426;53.478;10.190;2023-07-29T15:11:50;4.10;;;2.00;;
39740;SDS011;25426;53.478;10.190;2023-07-29T15:14:21;1.80;;;1.60;;
39740;SDS011;25426;53.478;10.190;2023-07-29T15:16:52;2.63;;;1.80;;
39740;SDS011;25426;53.478;10.190;2023-07-29T15:19:23;2.88;;;1.80;;
39740;SDS011;25426;53.478;10.190;2023-07-29T15:22:21;2.20;;;1.83;;
39740;SDS011;25426;53.478;10.190;2023-07-29T15:25:12;2.13;;;1.80;;
39740;SDS011;25426;53.478;10.190;2023-07-29T15:27:52;1.77;;;1.67;;
39740;SDS011;25426;53.478;10.190;2023-07-29T15:30:27;2.83;;;1.83;;
39740;SDS011;25426;53.478;10.190;2023-07-29T15:36:12;2.50;;;1.77;;
39740;SDS011;25426;53.478;10.190;2023-07-29T15:38:44;3.05;;;1.98;;
39740;SDS011;25426;53.478;10.190;2023-07-29T15:41:15;2.10;;;1.90;;
39740;SDS011;25426;53.478;10.190;2023-07-29T15:43:48;2.60;;;2.20;;
39740;SDS011;25426;53.478;10.190;2023-07-29T15:46:19;2.45;;;1.77;;
39740;SDS011;25426;53.478;10.190;2023-07-29T15:48:52;3.55;;;2.10;;
39740;SDS011;25426;53.478;10.190;2023-07-29T15:51:25;2.72;;;2.00;;
39740;SDS011;25426;53.478;10.190;2023-07-29T15:53:57;2.05;;;1.90;;
39740;SDS011;25426;53.478;10.190;2023-07-29T15:56:28;2.30;;;2.10;;
39740;SDS011;25426;53.478;10.190;2023-07-29T15:59:00;4.40;;;1.92;;
39740;SDS011;25426;53.478;10.190;2023-07-29T16:01:31;2.83;;;1.80;;
39740;SDS011;25426;53.478;10.190;2023-07-29T16:04:05;2.10;;;1.90;;
39740;SDS011;25426;53.478;10.190;2023-07-29T16:06:54;2.55;;;2.33;;
39740;SDS011;25426;53.478;10.190;2023-07-29T16:09:25;3.72;;;2.33;;
39740;SDS011;25426;53.478;10.190;2023-07-29T16:12:34;4.05;;;1.90;;
39740;SDS011;25426;53.478;10.190;2023-07-29T16:15:08;2.70;;;2.07;;
39740;SDS011;25426;53.478;10.190;2023-07-29T16:17:40;3.10;;;2.80;;
39740;SDS011;25426;53.478;10.190;2023-07-29T16:20:30;3.70;;;2.90;;
39740;SDS011;25426;53.478;10.190;2023-07-29T16:23:01;4.47;;;2.97;;
39740;SDS011;25426;53.478;10.190;2023-07-29T16:25:32;2.80;;;2.40;;
39740;SDS011;25426;53.478;10.190;2023-07-29T16:28:03;3.45;;;2.58;;
39740;SDS011;25426;53.478;10.190;2023-07-29T16:30:34;3.53;;;2.40;;
39740;SDS011;25426;53.478;10.190;2023-07-29T16:33:05;3.78;;;2.35;;
39740;SDS011;25426;53.478;10.190;2023-07-29T16:35:36;3.65;;;1.45;;
39740;SDS011;25426;53.478;10.190;2023-07-29T16:38:07;3.07;;;1.20;;
39740;SDS011;25426;53.478;10.190;2023-07-29T16:40:38;2.30;;;1.25;;
39740;SDS011;25426;53.478;10.190;2023-07-29T16:43:09;2.40;;;1.20;;
39740;SDS011;25426;53.478;10.190;2023-07-29T16:45:40;3.92;;;1.13;;
39740;SDS011;25426;53.478;10.190;2023-07-29T16:48:11;4.55;;;1.58;;
39740;SDS011;25426;53.478;10.190;2023-07-29T16:50:42;3.33;;;1.65;;
39740;SDS011;25426;53.478;10.190;2023-07-29T16:53:13;3.42;;;1.83;;
39740;SDS011;25426;53.478;10.190;2023-07-29T16:55:44;2.20;;;1.58;;
39740;SDS011;25426;53.478;10.190;2023-07-29T16:58:15;3.13;;;1.80;;
39740;SDS011;25426;53.478;10.190;2023-07-29T17:00:47;2.80;;;1.70;;
39740;SDS011;25426;53.478;10.190;2023-07-29T17:03:18;2.80;;;2.10;;
39740;SDS011;25426;53.478;10.190;2023-07-29T17:05:50;4.13;;;2.30;;
39740;SDS011;25426;53.478;10.190;2023-07-29T17:15:05;2.87;;;2.20;;
39740;SDS011;25426;53.478;10.190;2023-07-29T17:17:38;3.08;;;2.40;;
39740;SDS011;25426;53.478;10.190;2023-07-29T17:20:09;5.63;;;2.80;;
39740;SDS011;25426;53.478;10.190;2023-07-29T17:22:40;4.53;;;2.80;;
